Terminal Aerodrome Forecast
Issued by NWS Upton, NY

Home | Current Version | Previous Version | Text Only | Print | Product List | Glossary On
Versions: 1 2 3 4 5 6 7 8 9 10 11 12 13 14 15 16 17 18 19 20 21 22 23 24 25 26 27 28 29 30 31 32 33 34 35 36 37 38
000
FTUS41 KOKX 210235 AAA
TAFEWR
TAF AMD
KEWR 210235Z 2103/2206 16003KT 5SM -DZ BR BKN007 OVC014
     FM210500 21004KT 3SM -DZ BR OVC007
      TEMPO 2109/2113 OVC004
     FM211400 25006KT 5SM BR SCT006 BKN012
     FM211800 25008KT P6SM BKN020
     FM220100 24004KT 5SM BR OVC012
      TEMPO 2203/2206 23003KT 3/4SM BR OVC006=

USA.gov is the U.S. government's official web portal to all federal, state and local government web resources and services.